M I D A S
Marine Information and Data Acquisition System
Tripno 640 of the Zeeleeuw from 2004-02-02 07:23:31 to 2004-02-02 13:50:01
Back to CruiseResearch ActivitiesStationsMapUnderway DataData graphs

EquipmentUnitsComment
TimeDGPSUTC
LatitudeDGPSDM.mWGS84
LongitudeDGPSDM.mWGS84
HeadingGyrodeg 
SOGDGPSknotsSpeed over ground
COGDGPSdegCourse over ground
DepthEcho soundermeters200 kHz
Missing or incorrect values are displayed as -999
Navigation data collected by the RV Zeeleeuw from 2004-02-02 07:23:31 to 2004-02-02 13:50:01
Time Latitude Longitude Heading SOG COG Depth
2004-02-02 07:24:33 51°13.607 2°56.069 118.3 3 298 -999
2004-02-02 07:25:34 51°13.633 2°55.979 115.9 4 295 -999
2004-02-02 07:26:33 51°13.661 2°55.874 113.9 4.7 291 -999
2004-02-02 07:27:33 51°13.682 2°55.77 98.5 1.6 289 14
2004-02-02 07:28:33 51°13.723 2°55.778 356.3 5.3 339 12.5
2004-02-02 07:29:33 51°13.801 2°55.675 321.5 6.7 318 11.1
2004-02-02 07:30:33 51°13.907 2°55.575 340.8 8 335 11.3
2004-02-02 07:31:33 51°14.03 2°55.488 341.3 8.3 336 10.8
2004-02-02 07:32:33 51°14.151 2°55.399 338.9 7.3 333 11.1
2004-02-02 07:33:33 51°14.242 2°55.303 324.5 5.9 319 11.5
2004-02-02 07:34:33 51°14.317 2°55.171 311.5 7.4 307 11.7
2004-02-02 07:35:33 51°14.395 2°55.01 317.9 7.9 319 12.3
2004-02-02 07:36:33 51°14.501 2°54.93 342.2 7.1 345 11.4
2004-02-02 07:37:33 51°14.617 2°54.887 340.6 7.1 341 11.3
2004-02-02 07:38:33 51°14.719 2°54.797 324 8.3 328 11.1
2004-02-02 07:39:33 51°14.878 2°54.648 329.8 13 328 10.8
2004-02-02 07:40:33 51°15.071 2°54.459 329.5 13.7 327 10
2004-02-02 07:41:33 51°15.266 2°54.265 331.2 13.9 328 10.5
2004-02-02 07:42:33 51°15.463 2°54.074 331.2 13.8 329 11.4
2004-02-02 07:43:33 51°15.66 2°53.884 331 13.8 329 12.2
2004-02-02 07:44:33 51°15.859 2°53.698 331.5 13.8 330 12.9
2004-02-02 07:45:33 51°16.056 2°53.51 329.8 13.8 327 13.5
2004-02-02 07:46:33 51°16.253 2°53.325 331.1 13.6 330 13.8
2004-02-02 07:47:33 51°16.448 2°53.14 331.7 13.6 330 13.9
2004-02-02 07:48:33 51°16.641 2°52.957 331.8 13.5 330 13.1
2004-02-02 07:49:33 51°16.836 2°52.778 333.4 13.4 331 11
2004-02-02 07:50:33 51°17.036 2°52.602 333.2 13.7 332 11.2
2004-02-02 07:51:33 51°17.245 2°52.457 343 13.8 341 11.5
2004-02-02 07:52:33 51°17.471 2°52.37 352.8 14 349 12.1
2004-02-02 07:53:33 51°17.702 2°52.324 357.3 14 356 12
2004-02-02 07:54:33 51°17.934 2°52.282 356.8 14.1 355 12.3
2004-02-02 07:55:33 51°18.166 2°52.307 22.5 14.5 19 12.4
2004-02-02 07:56:33 51°18.358 2°52.533 50.8 14.6 46 12.9
2004-02-02 07:57:33 51°18.516 2°52.832 53.5 14.6 48 13
2004-02-02 07:58:33 51°18.673 2°53.137 52.6 14.4 50 13.2
2004-02-02 07:59:33 51°18.825 2°53.445 55.5 15.1 50 13.3
2004-02-02 08:00:33 51°18.976 2°53.759 55.1 15.2 51 13.5
2004-02-02 08:01:33 51°19.129 2°54.071 59.2 14.9 56 13.5
2004-02-02 08:02:33 51°19.273 2°54.389 58.2 14.7 56 13.5
2004-02-02 08:03:34 51°19.419 2°54.715 59 14.9 53 13.7
2004-02-02 08:04:33 51°19.56 2°55.032 58.7 15.1 53 13.9
2004-02-02 08:05:33 51°19.705 2°55.352 58.7 14.7 54 13.9
2004-02-02 08:06:33 51°19.844 2°55.677 61.3 15.4 57 13.8
2004-02-02 08:07:33 51°19.987 2°55.999 57.7 15.5 53 14
2004-02-02 08:08:33 51°20.128 2°56.325 58.7 14.6 55 14.1
2004-02-02 08:09:33 51°20.271 2°56.655 60.7 15 57 14
2004-02-02 08:10:33 51°20.407 2°56.989 61.5 15.1 58 13.9
2004-02-02 08:11:33 51°20.526 2°57.339 68.4 15.2 64 13.8
2004-02-02 08:12:33 51°20.638 2°57.692 65.6 15 60 13.8
2004-02-02 08:13:33 51°20.752 2°58.046 66.8 15.3 61 13.5
2004-02-02 08:14:34 51°20.931 2°58.311 32.7 14.7 30 13.6
2004-02-02 08:15:33 51°21.143 2°58.484 28.9 14.5 25 13.7
2004-02-02 08:16:33 51°21.353 2°58.68 38.1 14.9 39 13.8
2004-02-02 08:17:33 51°21.515 2°58.978 61.4 14.9 58 13.8
2004-02-02 08:18:33 51°21.621 2°59.335 68 14.4 63 13.6
2004-02-02 08:19:33 51°21.716 2°59.701 72.7 14.9 69 13.6
2004-02-02 08:20:33 51°21.803 3°0.074 75.7 14.9 73 13.3
2004-02-02 08:21:33 51°21.859 3°0.469 84.4 15.2 81 13
2004-02-02 08:22:33 51°21.914 3°0.867 83.8 15.4 80 12.9
2004-02-02 08:23:33 51°21.979 3°1.26 69.6 15.4 65 13.2
2004-02-02 08:24:33 51°22.116 3°1.593 55.8 14.9 52 13.3
2004-02-02 08:25:33 51°22.291 3°1.871 44.7 15 44 13.4
2004-02-02 08:26:33 51°22.476 3°2.135 45.3 15 44 11.2
2004-02-02 08:27:33 51°22.656 3°2.408 44 14.6 42 13
2004-02-02 08:28:33 51°22.835 3°2.677 44.4 14.8 44 12.5
2004-02-02 08:29:33 51°23.017 3°2.948 45.2 15.1 42 14.1
2004-02-02 08:30:33 51°23.199 3°3.222 42.6 14.8 42 13.3
2004-02-02 08:31:33 51°23.376 3°3.496 45.7 15 45 13.9
2004-02-02 08:32:33 51°23.554 3°3.779 45.8 15.2 44 14.7
2004-02-02 08:33:33 51°23.734 3°4.054 43.9 15.1 45 14.5
2004-02-02 08:34:33 51°23.928 3°4.299 32.6 15 32 15.5
2004-02-02 08:35:33 51°24.137 3°4.514 34.2 15 33 20.3
2004-02-02 08:36:33 51°24.345 3°4.729 32.8 15.2 37 20.3
2004-02-02 08:37:33 51°24.545 3°4.951 34.2 14.5 34 15.2
2004-02-02 08:38:33 51°24.751 3°5.168 34.1 14.8 32 14.8
2004-02-02 08:39:33 51°24.955 3°5.391 32.5 14.8 33 14.4
2004-02-02 08:40:33 51°25.163 3°5.606 32 15 32 13.5
2004-02-02 08:41:33 51°25.376 3°5.811 29.5 14.7 30 12.9
2004-02-02 08:42:33 51°25.576 3°6.052 46.1 15.2 47 12.3
2004-02-02 08:43:33 51°25.731 3°6.375 52.8 15.6 50 11.9
2004-02-02 08:44:33 51°25.883 3°6.692 56.6 15 55 12
2004-02-02 08:45:33 51°26.026 3°7.017 60.6 14.7 60 12
2004-02-02 08:46:33 51°26.16 3°7.355 58.8 14.9 58 10.2
2004-02-02 08:47:33 51°26.298 3°7.693 54.9 15.7 53 11.4
2004-02-02 08:48:33 51°26.418 3°8.007 60.9 12.2 59 12
2004-02-02 08:49:33 51°26.513 3°8.182 30.9 6.6 37 12.5
2004-02-02 08:50:33 51°26.569 3°8.251 19 3.1 43 13
2004-02-02 08:51:33 51°26.588 3°8.303 12.2 2 66 13.4
2004-02-02 08:52:33 51°26.6 3°8.353 351.1 2.3 68 13.3
2004-02-02 08:53:33 51°26.634 3°8.388 341.9 2.8 20 13.4
2004-02-02 08:54:34 51°26.685 3°8.423   3.4 27 13.8
2004-02-02 08:55:33 51°26.73 3°8.469 3.3 3 33 13.6
2004-02-02 08:56:33 51°26.772 3°8.516 0.2 3.3 36 13.9
2004-02-02 08:57:33 51°26.816 3°8.563 3.7 3 34 13.9
2004-02-02 08:58:33 51°26.855 3°8.614 12.1 3.2 43 13.9
2004-02-02 08:59:33 51°26.894 3°8.674 23.5 3.5 49 13.8
2004-02-02 09:00:33 51°26.933 3°8.742 24.6 3.6 54 13.8
2004-02-02 09:01:33 51°26.972 3°8.811 28.2 3.4 48 13.8
2004-02-02 09:02:33 51°27.006 3°8.885 43 3.5 57 13.9
2004-02-02 09:03:33 51°27.035 3°8.97 60 3.8 60 13.4
2004-02-02 09:04:34 51°27.054 3°9.072 85 4 77 13.4
2004-02-02 09:05:33 51°27.066 3°9.168 93.2 3.5 80 13
2004-02-02 09:06:33 51°27.078 3°9.26 95.4 3.6 82 12.7
2004-02-02 09:07:33 51°27.085 3°9.351 104.4 3.3 83 12.6
2004-02-02 09:08:33 51°27.092 3°9.436 105.5 3.3 82 12.8
2004-02-02 09:09:33 51°27.097 3°9.529 105.9 3.6 84 13
2004-02-02 09:10:33 51°27.101 3°9.62 111 3.3 89 12.9
2004-02-02 09:11:33 51°27.105 3°9.712 104.8 3.6 85 13
2004-02-02 09:12:33 51°27.111 3°9.804 99.8 3.4 85 12.8
2004-02-02 09:13:33 51°27.12 3°9.896 98.3 3.5 81 12.6
2004-02-02 09:14:33 51°27.129 3°9.989 94.4 3.4 83 12.6
2004-02-02 09:15:33 51°27.133 3°10.083 109.9 3.5 90 12.6
2004-02-02 09:16:33 51°27.133 3°10.174 119.7 3.4 92 12.4
2004-02-02 09:17:33 51°27.125 3°10.26 134.9 3.3 101 12.6
2004-02-02 09:18:33 51°27.112 3°10.345 141.7 3.2 110 12.6
2004-02-02 09:19:33 51°27.093 3°10.427 150 3.4 111 12.1
2004-02-02 09:20:33 51°27.071 3°10.507 152.4 3.1 120 11.9
2004-02-02 09:21:33 51°27.048 3°10.586 155.3 3.3 111 11.7
2004-02-02 09:22:33 51°27.025 3°10.664 155.3 3.2 113 12.2
2004-02-02 09:23:33 51°27.001 3°10.74 154.6 3.3 119 11.9
2004-02-02 09:24:33 51°26.974 3°10.821 154.5 3.2 120 11.8
2004-02-02 09:25:33 51°26.953 3°10.896 156.7 2.9 115 11.6
2004-02-02 09:26:33 51°26.926 3°10.972 155.9 3.3 122 11.5
2004-02-02 09:27:33 51°26.903 3°11.046 159.6 2.8 114 10.6
2004-02-02 09:28:33 51°26.89 3°11.108 167.3 2.4 104 11.5
2004-02-02 09:29:33 51°26.885 3°11.165 166.7 2.2 93 10.4
2004-02-02 09:30:33 51°26.884 3°11.222 166.9 2.3 96 11.4
2004-02-02 09:31:33 51°26.859 3°11.277 186.9 2.5 139 10.6
2004-02-02 09:32:33 51°26.828 3°11.311 206.7 2.1 146 11
2004-02-02 09:33:33 51°26.807 3°11.325 232.2 1.2 174 11
2004-02-02 09:34:33 51°26.8 3°11.3 270.2 1.9 288 11
2004-02-02 09:35:33 51°26.821 3°11.261 284.2 1.9 318 11.2
2004-02-02 09:36:33 51°26.852 3°11.224 293.9 2.5 320 11.3
2004-02-02 09:37:33 51°26.888 3°11.207 310.6 2.4 355 11.2
2004-02-02 09:38:33 51°26.928 3°11.202 315.1 2.5 356 11.1
2004-02-02 09:39:33 51°26.969 3°11.208 322.2 2.3 10 11.1
2004-02-02 09:40:33 51°27.013 3°11.22 327.7 2.7 4 11.9
2004-02-02 09:41:33 51°27.061 3°11.221 329.9 2.7 358 11.1
2004-02-02 09:42:33 51°27.111 3°11.225 327.6 3.1 3 11.5
2004-02-02 09:43:33 51°27.161 3°11.234 336.8 3.1 18 10.8
2004-02-02 09:44:34 51°27.209 3°11.255 339.5 3 17 11.2
2004-02-02 09:45:33 51°27.252 3°11.276 337.4 2.5 12 69.6
2004-02-02 09:46:33 51°27.295 3°11.296 331.5 2.7 17 11.6
2004-02-02 09:47:33 51°27.337 3°11.313 332.1 2.6 15 11.2
2004-02-02 09:48:35 51°27.383 3°11.336 335 2.6 19 11.7
2004-02-02 09:49:33 51°27.424 3°11.353 328.3 2.7 13 11.9
2004-02-02 09:50:33 51°27.465 3°11.373 327.3 2.7 18 10
2004-02-02 09:51:33 51°27.502 3°11.393 329.2 2.9 20 12.2
2004-02-02 09:52:33 51°27.544 3°11.412 331.5 2.6 21 11.3
2004-02-02 09:53:33 51°27.586 3°11.437 335.2 2.7 20 10.6
2004-02-02 09:54:33 51°27.629 3°11.46 333.3 3 19 11.6
2004-02-02 09:55:33 51°27.672 3°11.479 331.8 2.8 16 11.4
2004-02-02 09:56:33 51°27.716 3°11.498 334.5 2.7 12 12
2004-02-02 09:57:33 51°27.757 3°11.521 333.8 2.3 20 11.7
2004-02-02 09:58:34 51°27.798 3°11.537 330.7 2.7 14 12.7
2004-02-02 09:59:33 51°27.838 3°11.558 337.2 2.3 21 10.4
2004-02-02 10:00:33 51°27.877 3°11.582 336.1 2.6 16 12.1
2004-02-02 10:01:33 51°27.923 3°11.615 355.9 3.1 26 11.5
2004-02-02 10:02:33 51°27.96 3°11.652 345.4 2.5 36 12.6
2004-02-02 10:03:33 51°27.988 3°11.694 337.2 2.9 50 12.2
2004-02-02 10:04:33 51°28.022 3°11.732 336.8 3.2 3 11.7
2004-02-02 10:05:33 51°28.068 3°11.691 279.1 3 294 12.8
2004-02-02 10:06:33 51°28.028 3°11.646 209 6.5 197 12.6
2004-02-02 10:07:33 51°27.93 3°11.491 236.2 10.2 233 12.8
2004-02-02 10:08:33 51°27.831 3°11.271 237.5 11.2 233 12.6
2004-02-02 10:09:34 51°27.728 3°11.043 238.7 10.8 235 12.5
2004-02-02 10:10:33 51°27.629 3°10.819 238.2 11 238 12.5
2004-02-02 10:11:33 51°27.528 3°10.593 238.5 9.2 236 12.6
2004-02-02 10:12:33 51°27.46 3°10.329 251.3 11 250 12.8
2004-02-02 10:13:33 51°27.395 3°10.042 251.5 11.8 250 13.1
2004-02-02 10:14:33 51°27.328 3°9.76 248.9 11.3 248 13.2
2004-02-02 10:15:33 51°27.258 3°9.48 249 11.2 248 13.3
2004-02-02 10:16:33 51°27.102 3°9.359 203.5 11.7 195 12.7
2004-02-02 10:17:33 51°26.923 3°9.256 211.1 11.3 203 12.5
2004-02-02 10:18:35 51°26.758 3°9.108 216.4 10.5 210 -999
2004-02-02 10:19:33 51°26.614 3°8.94 219.1 10.2 213 -999
2004-02-02 10:20:33 51°26.489 3°8.726 236.6 11.5 234 13.4
2004-02-02 10:21:33 51°26.389 3°8.504 237.8 10.3 236 13
2004-02-02 10:22:33 51°26.285 3°8.271 237.1 10.8 234 11.6
2004-02-02 10:23:33 51°26.172 3°8.036 232.3 11.4 227 12.1
2004-02-02 10:24:33 51°26.035 3°7.825 226.8 11.3 224 11.8
2004-02-02 10:25:33 51°25.904 3°7.627 228.5 10.4 225 11.7
2004-02-02 10:26:33 51°25.774 3°7.432 227.7 10.8 224 11.5
2004-02-02 10:27:33 51°25.641 3°7.226 229.4 11.5 225 12.4
2004-02-02 10:28:33 51°25.509 3°7.006 230.8 11.6 227 12.3
2004-02-02 10:29:33 51°25.378 3°6.786 230.5 11.6 227 12
2004-02-02 10:30:33 51°25.246 3°6.571 230.5 11 227 12.5
2004-02-02 10:31:33 51°25.109 3°6.365 228.3 11.2 224 12.8
2004-02-02 10:32:33 51°24.969 3°6.16 228.6 11.7 223 13.7
2004-02-02 10:33:33 51°24.828 3°5.953 227.4 11.2 221 13.8
2004-02-02 10:34:33 51°24.687 3°5.747 228.1 11.2 221 14.3
2004-02-02 10:35:33 51°24.549 3°5.549 228.2 11.5 224 15.3
2004-02-02 10:36:33 51°24.409 3°5.345 228.6 11.1 220 16.4
2004-02-02 10:37:33 51°24.267 3°5.137 228.2 11.6 221 20.2
2004-02-02 10:38:35 51°24.118 3°4.919 228.2 11.8 223 20.3
2004-02-02 10:39:33 51°23.982 3°4.716 228.6 11.1 223 16.6
2004-02-02 10:40:33 51°23.846 3°4.517 227.9 11.5 223 16.1
2004-02-02 10:41:33 51°23.71 3°4.316 228.1 11.4 223 14.7
2004-02-02 10:42:33 51°23.57 3°4.106 228.1 11.2 223 15.7
2004-02-02 10:43:34 51°23.431 3°3.894 228.8 11.6 224 14.8
2004-02-02 10:44:33 51°23.301 3°3.703 227.1 11 222 14.5
2004-02-02 10:45:34 51°23.163 3°3.498 228 10.4 222 -999
2004-02-02 10:46:33 51°23.035 3°3.313 228.3 10.3 223 13.1
2004-02-02 10:47:34 51°22.901 3°3.12 229.3 11.3 225 12.2
2004-02-02 10:48:33 51°22.769 3°2.919 227.9 11.5 225 14
2004-02-02 10:49:33 51°22.632 3°2.718 228.3 11.5 221 13.7
2004-02-02 10:50:33 51°22.493 3°2.525 226.2 10.9 220 14.2
2004-02-02 10:51:33 51°22.357 3°2.335 225.1 10.5 219 13.1
2004-02-02 10:52:33 51°22.24 3°2.164 232 10.3 228 13.9
2004-02-02 10:53:33 51°22.117 3°1.945 233.1 11.6 229 14.1
2004-02-02 10:54:33 51°21.996 3°1.741 230.3 10.6 226 13.6
2004-02-02 10:55:33 51°21.873 3°1.535 231.7 11 228 13.4
2004-02-02 10:56:33 51°21.747 3°1.32 231.4 10.7 228 13.3
2004-02-02 10:57:34 51°21.618 3°1.097 231.5 11.3 228 13.7
2004-02-02 10:58:33 51°21.498 3°0.892 230.7 10.7 226 13.4
2004-02-02 10:59:33 51°21.377 3°0.691 231.3 10.7 229 13.5
2004-02-02 11:00:33 51°21.253 3°0.493 228 10.3 219 13.8
2004-02-02 11:01:33 51°21.134 3°0.339 227.7 7.7 221 13.2
2004-02-02 11:02:33 51°21.073 3°0.198 236.7 7.2 234 22.5
2004-02-02 11:03:33 51°21.015 3°0.064 240.2 3.7 238 13.1
2004-02-02 11:04:33 51°21.003 3°0.053 227.9 0.9 106 13.2
2004-02-02 11:05:33 51°21.015 3°0.099 204.9 2.7 61 13.2
2004-02-02 11:06:33 51°21.02 3°0.151 192.3 2.3 120 13.3
2004-02-02 11:07:33 51°21.001 3°0.179 218.3 1.5 146 13.4
2004-02-02 11:08:33 51°20.985 3°0.168 245.9 1.5 244 13.2
2004-02-02 11:09:33 51°21.017 3°0.135 315.7 3.8 347 12.7
2004-02-02 11:10:33 51°21.076 3°0.128 331 3.2 8 13.3
2004-02-02 11:11:33 51°21.13 3°0.145 343.8 3.2   13.2
2004-02-02 11:12:33 51°21.187 3°0.181 3.3 3.4 24 14.2
2004-02-02 11:13:33 51°21.237 3°0.224 10.1 3.2 27 13.3
2004-02-02 11:14:33 51°21.285 3°0.273 12.3 3.2 31 13.4
2004-02-02 11:15:33 51°21.328 3°0.326 17.8 3.4 36 13.8
2004-02-02 11:16:33 51°21.373 3°0.384 25.8 3.8 52 13.7
2004-02-02 11:17:33 51°21.42 3°0.444 27.5 3.6 29 13.4
2004-02-02 11:18:33 51°21.46 3°0.515 46.4 3.8 57 13.8
2004-02-02 11:19:33 51°21.498 3°0.595 66.1 3.9 57 13.8
2004-02-02 11:20:33 51°21.521 3°0.686 93.5 3.6 72 13.6
2004-02-02 11:21:33 51°21.535 3°0.773 107.1 3.3 75 13.2
2004-02-02 11:22:33 51°21.546 3°0.864 104.1 3.9 71 13.2
2004-02-02 11:23:33 51°21.56 3°0.958 101.2 3.5 77 13.8
2004-02-02 11:24:33 51°21.573 3°1.047 104.3 3.3 76 13.3
2004-02-02 11:25:33 51°21.584 3°1.132 106.5 3.8 80 13
2004-02-02 11:26:33 51°21.599 3°1.221 106.4 3.4 75 13.5
2004-02-02 11:27:33 51°21.61 3°1.314 106 3.5 81 13.5
2004-02-02 11:28:33 51°21.621 3°1.402 109.7 3.4 76 12.9
2004-02-02 11:29:33 51°21.631 3°1.491 111.4 3.5 76 13.1
2004-02-02 11:30:33 51°21.64 3°1.583 112.8 3.5 84 13.3
2004-02-02 11:31:33 51°21.648 3°1.673 116.4 3.2 84 13.4
2004-02-02 11:32:33 51°21.654 3°1.758 119.5 3.4 84 12.9
2004-02-02 11:33:33 51°21.66 3°1.845 120.4 3.2 87 13.6
2004-02-02 11:34:34 51°21.665 3°1.933 119 3.3 82 13.3
2004-02-02 11:35:33 51°21.671 3°2.02 121.8 3.4 82 13.2
2004-02-02 11:36:33 51°21.674 3°2.107 131.6 2.9 96 12.7
2004-02-02 11:37:33 51°21.67 3°2.189 143.6 3 102 13.8
2004-02-02 11:38:33 51°21.667 3°2.257 156.9 2.5 85 13.7
2004-02-02 11:39:33 51°21.675 3°2.316 159.1 2 75 13.2
2004-02-02 11:40:33 51°21.687 3°2.376 159.5 2.3 75 13.3
2004-02-02 11:41:33 51°21.702 3°2.434 151.1 2.1 73 13.7
2004-02-02 11:42:33 51°21.716 3°2.498 146.9 2.7 70 13.9
2004-02-02 11:43:33 51°21.726 3°2.555 153.2 1.7 82 13.5
2004-02-02 11:44:33 51°21.734 3°2.618 162.5 2.6 95 13.7
2004-02-02 11:45:33 51°21.714 3°2.666 199.9 2.4 154 13.5
2004-02-02 11:46:33 51°21.696 3°2.679 235.7 0.6 184 13.6
2004-02-02 11:47:33 51°21.712 3°2.697 297.2 2.4 50 13
2004-02-02 11:48:33 51°21.736 3°2.749 339.4 2.7 58 13.4
2004-02-02 11:49:33 51°21.757 3°2.803 351.8 2.9 61 13.3
2004-02-02 11:50:33 51°21.779 3°2.856 352.9 2.4 52 13.7
2004-02-02 11:51:34 51°21.804 3°2.904 339.3 2.1 51 13.3
2004-02-02 11:52:33 51°21.828 3°2.951 332 2.3 53 13.4
2004-02-02 11:53:33 51°21.85 3°3.002 335.1 2 54 13.8
2004-02-02 11:54:33 51°21.872 3°3.056 336 2.1 58 13.3
2004-02-02 11:55:33 51°21.893 3°3.11 339.2 2.1 51 13.2
2004-02-02 11:56:33 51°21.915 3°3.163 340 2.5 56 14
2004-02-02 11:57:33 51°21.937 3°3.213 344 2.9 55 13.1
2004-02-02 11:58:33 51°21.961 3°3.26 337.5 2.2 55 13.7
2004-02-02 11:59:34 51°21.991 3°3.307 332.7 2.6 32 13.8
2004-02-02 12:00:33 51°22.03 3°3.311 297.6 2.7 355 13.8
2004-02-02 12:01:33 51°22.057 3°3.301 269.4 1.3 354 13.4
2004-02-02 12:02:33 51°22.057 3°3.303 210.5 1.9 151 13.2
2004-02-02 12:03:33 51°22.039 3°3.284 253.2 2 259 14
2004-02-02 12:04:33 51°22.02 3°3.23 225 2.3 217 13
2004-02-02 12:05:33 51°22.001 3°3.189 248.5 1.8 250 13.9
2004-02-02 12:06:33 51°21.984 3°3.136 248.4 4.2 251 13.5
2004-02-02 12:07:33 51°21.956 3°2.952 257 7.9 257 13.3
2004-02-02 12:08:33 51°21.929 3°2.758 257.6 7.2 259 13.4
2004-02-02 12:09:33 51°21.907 3°2.56 263.1 7.8 266 13.1
2004-02-02 12:10:33 51°21.895 3°2.352 264.4 7.5 265 12.6
2004-02-02 12:11:34 51°21.882 3°2.119 263.6 8.6 267 13.5
2004-02-02 12:12:33 51°21.851 3°1.886 250.4 9.2 251 13.4
2004-02-02 12:13:35 51°21.768 3°1.65 242 10.1 240 12.9
2004-02-02 12:14:33 51°21.686 3°1.445 238.9 9.5 234 13
2004-02-02 12:15:34 51°21.589 3°1.226 238.9 10.3 236 13.3
2004-02-02 12:16:33 51°21.494 3°1.012 238.9 9.6 237 12.6
2004-02-02 12:17:33 51°21.397 3°0.78 238.8 10.5 235 12.8
2004-02-02 12:18:35 51°21.299 3°0.575 238.4 9.1 234 13.2
2004-02-02 12:19:33 51°21.216 3°0.382 239.4 10.4 236 13.6
2004-02-02 12:20:35 51°21.116 3°0.152 237.5 7.8 230 -999
2004-02-02 12:21:33 51°21.079 3°0.09 233.6 1 208 13.8
2004-02-02 12:22:33 51°21.079 3°0.112 213.3 1.6 63 13.4
2004-02-02 12:23:33 51°21.095 3°0.16 181 1.5 51 12.5
2004-02-02 12:24:33 51°21.094 3°0.213 171 2.1 120 12.6
2004-02-02 12:25:33 51°21.068 3°0.248 201.7 2.1 159 13.4
2004-02-02 12:26:34 51°21.029 3°0.254 210.5 2.1 183 12.2
2004-02-02 12:27:33 51°20.997 3°0.255 212.8 1.7 183 12.1
2004-02-02 12:28:33 51°20.968 3°0.251 222.6 1.7 194 11.9
2004-02-02 12:29:33 51°20.942 3°0.23 230.7 2.1 216 12.9
2004-02-02 12:30:33 51°20.908 3°0.205 221.5 2.5 198 12.7
2004-02-02 12:31:33 51°20.877 3°0.187 222.9 2 208 12.5
2004-02-02 12:32:34 51°20.841 3°0.165 222.8 2.1 213 12.7
2004-02-02 12:33:33 51°20.815 3°0.125 236.7 1.8 236 12.1
2004-02-02 12:34:33 51°20.789 3°0.111 223.7 1.8 198 12.6
2004-02-02 12:35:33 51°20.761 3°0.098 221.1 1.8 189 12.7
2004-02-02 12:36:33 51°20.727 3°0.09 216.8 2.1 194 12
2004-02-02 12:37:33 51°20.695 3°0.073 222.1 1.6 215 11.9
2004-02-02 12:38:35 51°20.662 3°0.062 217.8 1.9 185 12.1
2004-02-02 12:39:33 51°20.636 3°0.043 228.2 2 212 12.5
2004-02-02 12:40:33 51°20.607 3°0.012 229.6 2.2 216 12.1
2004-02-02 12:41:33 51°20.573 2°59.994 213.4 2.2 190 11.8
2004-02-02 12:42:33 51°20.534 2°59.977 220.8 2.5 198 12.6
2004-02-02 12:43:33 51°20.503 2°59.939 233.3 2.3 217 12.1
2004-02-02 12:44:33 51°20.473 2°59.906 228.6 2.4 224 12.1
2004-02-02 12:45:35 51°20.442 2°59.864 235.3 2.7 225 12
2004-02-02 12:46:33 51°20.418 2°59.831 238.5 2 234 12
2004-02-02 12:47:35 51°20.403 2°59.776 248 2.2 251 12.1
2004-02-02 12:48:33 51°20.385 2°59.723 241.5 2.2 242 11.4
2004-02-02 12:49:35 51°20.36 2°59.663 237.4 2.5 229 11.8
2004-02-02 12:50:33 51°20.333 2°59.622 239.6 2.1 232 11.8
2004-02-02 12:51:33 51°20.319 2°59.576 252.3 2.5 252 12.1
2004-02-02 12:52:35 51°20.303 2°59.519 244.5 2.4 244 12
2004-02-02 12:53:33 51°20.283 2°59.463 241.6 2.7 236 11.6
2004-02-02 12:54:33 51°20.268 2°59.402 258.4 2.3 270 11.5
2004-02-02 12:55:33 51°20.284 2°59.39 287 1.6 25 11.8
2004-02-02 12:56:33 51°20.307 2°59.422 331.6 1.9 44 11.8
2004-02-02 12:57:33 51°20.329 2°59.458 350.7 1.7 49 11.9
2004-02-02 12:58:34 51°20.35 2°59.496 348.8 1.3 30 11.8
2004-02-02 12:59:33 51°20.367 2°59.529 345.5 1.3 41 11.9
2004-02-02 13:00:33 51°20.388 2°59.564 342.8 1.6 45 11.1
2004-02-02 13:01:33 51°20.41 2°59.598 343 1.9 41 11.5
2004-02-02 13:02:33 51°20.46 2°59.57 299.9 3.9 311 11.8
2004-02-02 13:03:33 51°20.452 2°59.463 243.2 6.8 241 11.9
2004-02-02 13:04:33 51°20.376 2°59.225 246.9 11.8 245 11.9
2004-02-02 13:05:35 51°20.287 2°58.945 245.7 11.6 243 11.6
2004-02-02 13:06:33 51°20.205 2°58.676 247.2 11.8 245 12.1
2004-02-02 13:07:33 51°20.119 2°58.391 247.8 11.8 244 11.6
2004-02-02 13:08:35 51°20.031 2°58.108 247.7 11.1 246 11.5
2004-02-02 13:09:33 51°19.953 2°57.846 248.1 11.8 246 11.9
2004-02-02 13:10:33 51°19.867 2°57.568 246.4 11.1 244 12
2004-02-02 13:11:35 51°19.78 2°57.284 248.1 11.9 246 12.2
2004-02-02 13:12:33 51°19.697 2°57.016 247 12.2 243 12.2
2004-02-02 13:13:34 51°19.611 2°56.725 246.2 11.1 244 -999
2004-02-02 13:14:35 51°19.532 2°56.473 247.7 10.8 244 -999
2004-02-02 13:15:35 51°19.45 2°56.196 247.2 11.7 245 11.9
2004-02-02 13:16:33 51°19.368 2°55.916 247.8 12.3 244 12.2
2004-02-02 13:17:33 51°19.283 2°55.625 247.2 12.3 245 11.9
2004-02-02 13:18:34 51°19.197 2°55.343 246.2 11.6 245 12.3
2004-02-02 13:19:33 51°19.116 2°55.062 248.1 12.2 246 12.3
2004-02-02 13:20:34 51°19.029 2°54.772 247.5 11.9 246 12.7
2004-02-02 13:21:34 51°18.94 2°54.482 245.4 12.3 243 12
2004-02-02 13:22:36 51°18.846 2°54.192 244.7 11.2 241 12.1
2004-02-02 13:23:35 51°18.758 2°53.926 246.5 10.8 242 -999
2004-02-02 13:24:35 51°18.671 2°53.662 245.6 12.1 241 12.4
2004-02-02 13:25:35 51°18.567 2°53.396 236.8 11.6 236 11.2
2004-02-02 13:26:34 51°18.444 2°53.153 233.4 12.2 229 12
2004-02-02 13:27:34 51°18.301 2°52.919 229 12.3 227 11.5
2004-02-02 13:28:34 51°18.147 2°52.717 219.9 12 218 11.2
2004-02-02 13:29:34 51°17.985 2°52.537 219.3 12 215 11.6
2004-02-02 13:30:34 51°17.806 2°52.383 206.1 12.5 201 11.3
2004-02-02 13:31:35 51°17.606 2°52.303 191.8 12.5 189 11.2
2004-02-02 13:32:34 51°17.399 2°52.303 178.1 12.7 171 10.8
2004-02-02 13:33:34 51°17.189 2°52.35 174.1 13.1 172 10.8
2004-02-02 13:34:35 51°16.976 2°52.418 171.8 12.9 168 10.1
2004-02-02 13:35:35 51°16.769 2°52.512 169 12.7 167 11
2004-02-02 13:36:35 51°16.562 2°52.618 165.8 13.1 157 12.3
2004-02-02 13:37:34 51°16.358 2°52.728 165.9 13.2 162 13.2
2004-02-02 13:38:34 51°16.153 2°52.852 162.8 13.4 158 13.2
2004-02-02 13:39:34 51°15.952 2°52.989 159 13.5 152 12.9
2004-02-02 13:40:35 51°15.75 2°53.15 157.3 13.7 149 12.3
2004-02-02 13:41:34 51°15.594 2°53.279 157.9 8.9 151 12
2004-02-02 13:42:35 51°15.472 2°53.388 157.7 9.1 153 11.5
2004-02-02 13:43:35 51°15.289 2°53.546 156 13 151 10.6
2004-02-02 13:44:35 51°15.112 2°53.76 146.5 13.1 145 10.5
2004-02-02 13:45:35 51°14.938 2°53.99 144.2 13.3 140 10.2
2004-02-02 13:46:35 51°14.769 2°54.227 148 13.2 144 11
2004-02-02 13:47:35 51°14.616 2°54.491 131 13.9 127 10.6
2004-02-02 13:48:35 51°14.487 2°54.785 133.8 12.8 126 11.1
2004-02-02 13:49:34 51°14.372 2°55.059 126.7 11.8 123 11